sensor_id;sensor_type;location;lat;lon;timestamp;temperature;humidity
18906;DHT22;9585;51.018;4.282;2022-12-08T00:01:42;3.40;99.90
18906;DHT22;9585;51.018;4.282;2022-12-08T00:04:10;3.40;99.90
18906;DHT22;9585;51.018;4.282;2022-12-08T00:06:39;3.30;99.90
18906;DHT22;9585;51.018;4.282;2022-12-08T00:09:28;3.40;99.90
18906;DHT22;9585;51.018;4.282;2022-12-08T00:11:57;3.40;99.90
18906;DHT22;9585;51.018;4.282;2022-12-08T00:14:28;3.30;99.90
18906;DHT22;9585;51.018;4.282;2022-12-08T00:16:55;3.30;99.90
18906;DHT22;9585;51.018;4.282;2022-12-08T00:19:23;3.30;99.90
18906;DHT22;9585;51.018;4.282;2022-12-08T00:21:51;3.20;99.90
18906;DHT22;9585;51.018;4.282;2022-12-08T00:24:19;3.20;99.90
18906;DHT22;9585;51.018;4.282;2022-12-08T00:26:49;3.20;99.90
18906;DHT22;9585;51.018;4.282;2022-12-08T00:29:16;3.20;99.90
18906;DHT22;9585;51.018;4.282;2022-12-08T00:31:44;3.20;99.90
18906;DHT22;9585;51.018;4.282;2022-12-08T00:34:11;3.10;99.90
18906;DHT22;9585;51.018;4.282;2022-12-08T00:36:39;3.10;99.90
18906;DHT22;9585;51.018;4.282;2022-12-08T00:39:06;3.10;99.90
18906;DHT22;9585;51.018;4.282;2022-12-08T00:41:34;3.00;99.90
18906;DHT22;9585;51.018;4.282;2022-12-08T00:44:20;3.00;99.90
18906;DHT22;9585;51.018;4.282;2022-12-08T00:46:47;2.90;99.90
18906;DHT22;9585;51.018;4.282;2022-12-08T00:49:15;2.90;99.90
18906;DHT22;9585;51.018;4.282;2022-12-08T00:51:43;2.80;99.90
18906;DHT22;9585;51.018;4.282;2022-12-08T00:54:10;2.80;99.90
18906;DHT22;9585;51.018;4.282;2022-12-08T00:56:38;2.70;99.90
18906;DHT22;9585;51.018;4.282;2022-12-08T00:59:06;2.70;99.90
18906;DHT22;9585;51.018;4.282;2022-12-08T01:01:35;2.70;99.90
18906;DHT22;9585;51.018;4.282;2022-12-08T01:04:03;2.60;99.90
18906;DHT22;9585;51.018;4.282;2022-12-08T01:06:31;2.60;99.90
18906;DHT22;9585;51.018;4.282;2022-12-08T01:09:00;2.60;99.90
18906;DHT22;9585;51.018;4.282;2022-12-08T01:11:27;2.60;99.90
18906;DHT22;9585;51.018;4.282;2022-12-08T01:13:55;2.60;99.90
18906;DHT22;9585;51.018;4.282;2022-12-08T01:16:25;2.60;99.90
18906;DHT22;9585;51.018;4.282;2022-12-08T01:18:56;2.60;99.90
18906;DHT22;9585;51.018;4.282;2022-12-08T01:21:24;2.60;99.90
18906;DHT22;9585;51.018;4.282;2022-12-08T01:23:51;2.70;99.90
18906;DHT22;9585;51.018;4.282;2022-12-08T01:26:19;2.70;99.90
18906;DHT22;9585;51.018;4.282;2022-12-08T01:28:47;2.70;99.90
18906;DHT22;9585;51.018;4.282;2022-12-08T01:31:15;2.60;99.90
18906;DHT22;9585;51.018;4.282;2022-12-08T01:33:43;2.60;99.90
18906;DHT22;9585;51.018;4.282;2022-12-08T01:36:17;2.60;99.90
18906;DHT22;9585;51.018;4.282;2022-12-08T01:38:45;2.70;99.90
18906;DHT22;9585;51.018;4.282;2022-12-08T01:41:14;2.70;99.90
18906;DHT22;9585;51.018;4.282;2022-12-08T01:43:57;2.60;99.90
18906;DHT22;9585;51.018;4.282;2022-12-08T01:46:27;2.50;99.90
18906;DHT22;9585;51.018;4.282;2022-12-08T01:48:58;2.50;99.90
18906;DHT22;9585;51.018;4.282;2022-12-08T01:51:30;2.40;99.90
18906;DHT22;9585;51.018;4.282;2022-12-08T01:53:58;2.40;99.90
18906;DHT22;9585;51.018;4.282;2022-12-08T01:56:29;2.30;99.90
18906;DHT22;9585;51.018;4.282;2022-12-08T01:58:58;2.30;99.90
18906;DHT22;9585;51.018;4.282;2022-12-08T02:01:26;2.30;99.90
18906;DHT22;9585;51.018;4.282;2022-12-08T02:03:58;2.40;99.90
18906;DHT22;9585;51.018;4.282;2022-12-08T02:06:28;2.30;99.90
18906;DHT22;9585;51.018;4.282;2022-12-08T02:08:58;2.30;99.90
18906;DHT22;9585;51.018;4.282;2022-12-08T02:11:26;2.30;99.90
18906;DHT22;9585;51.018;4.282;2022-12-08T02:13:54;2.20;99.90
18906;DHT22;9585;51.018;4.282;2022-12-08T02:16:34;2.20;99.90
18906;DHT22;9585;51.018;4.282;2022-12-08T02:22:06;2.20;99.90
18906;DHT22;9585;51.018;4.282;2022-12-08T02:24:39;2.20;99.90
18906;DHT22;9585;51.018;4.282;2022-12-08T02:27:27;2.20;99.90
18906;DHT22;9585;51.018;4.282;2022-12-08T02:30:10;2.10;99.90
18906;DHT22;9585;51.018;4.282;2022-12-08T02:33:00;2.10;99.90
18906;DHT22;9585;51.018;4.282;2022-12-08T02:35:42;2.00;99.90
18906;DHT22;9585;51.018;4.282;2022-12-08T02:38:15;2.00;99.90
18906;DHT22;9585;51.018;4.282;2022-12-08T02:40:50;2.00;99.90
18906;DHT22;9585;51.018;4.282;2022-12-08T02:43:25;1.90;99.90
18906;DHT22;9585;51.018;4.282;2022-12-08T02:45:58;1.90;99.90
18906;DHT22;9585;51.018;4.282;2022-12-08T02:48:27;1.80;99.90
18906;DHT22;9585;51.018;4.282;2022-12-08T02:50:56;1.80;99.90
18906;DHT22;9585;51.018;4.282;2022-12-08T02:53:23;1.80;99.90
18906;DHT22;9585;51.018;4.282;2022-12-08T02:55:58;1.90;99.90
18906;DHT22;9585;51.018;4.282;2022-12-08T02:58:45;1.90;99.90
18906;DHT22;9585;51.018;4.282;2022-12-08T03:01:31;1.90;99.90
18906;DHT22;9585;51.018;4.282;2022-12-08T03:04:09;2.00;99.90
18906;DHT22;9585;51.018;4.282;2022-12-08T03:06:46;2.00;99.90
18906;DHT22;9585;51.018;4.282;2022-12-08T03:09:19;2.00;99.90
18906;DHT22;9585;51.018;4.282;2022-12-08T03:11:56;2.10;99.90
18906;DHT22;9585;51.018;4.282;2022-12-08T03:14:27;2.20;99.90
18906;DHT22;9585;51.018;4.282;2022-12-08T03:16:57;2.20;99.90
18906;DHT22;9585;51.018;4.282;2022-12-08T03:19:27;2.30;99.90
18906;DHT22;9585;51.018;4.282;2022-12-08T03:21:59;2.30;99.90
18906;DHT22;9585;51.018;4.282;2022-12-08T03:24:30;2.40;99.90
18906;DHT22;9585;51.018;4.282;2022-12-08T03:27:01;2.40;99.90
18906;DHT22;9585;51.018;4.282;2022-12-08T03:29:29;2.50;99.90
18906;DHT22;9585;51.018;4.282;2022-12-08T03:32:00;2.50;99.90
18906;DHT22;9585;51.018;4.282;2022-12-08T03:34:30;2.60;99.90
18906;DHT22;9585;51.018;4.282;2022-12-08T03:37:00;2.60;99.90
18906;DHT22;9585;51.018;4.282;2022-12-08T03:39:28;2.70;99.90
18906;DHT22;9585;51.018;4.282;2022-12-08T03:41:55;2.70;99.90
18906;DHT22;9585;51.018;4.282;2022-12-08T03:44:23;2.60;99.90
18906;DHT22;9585;51.018;4.282;2022-12-08T03:46:50;2.70;99.90
18906;DHT22;9585;51.018;4.282;2022-12-08T03:49:17;2.70;99.90
18906;DHT22;9585;51.018;4.282;2022-12-08T03:51:45;2.70;99.90
18906;DHT22;9585;51.018;4.282;2022-12-08T03:54:13;2.70;99.90
18906;DHT22;9585;51.018;4.282;2022-12-08T03:56:41;2.70;99.90
18906;DHT22;9585;51.018;4.282;2022-12-08T03:59:09;2.60;99.90
18906;DHT22;9585;51.018;4.282;2022-12-08T04:01:38;2.60;99.90
18906;DHT22;9585;51.018;4.282;2022-12-08T04:04:05;2.60;99.90
18906;DHT22;9585;51.018;4.282;2022-12-08T04:06:32;2.60;99.90
18906;DHT22;9585;51.018;4.282;2022-12-08T04:09:00;2.60;99.90
18906;DHT22;9585;51.018;4.282;2022-12-08T04:11:28;2.60;99.90
18906;DHT22;9585;51.018;4.282;2022-12-08T04:13:55;2.70;99.90
18906;DHT22;9585;51.018;4.282;2022-12-08T04:16:24;2.70;99.90
18906;DHT22;9585;51.018;4.282;2022-12-08T04:18:53;2.70;99.90
18906;DHT22;9585;51.018;4.282;2022-12-08T04:21:20;2.70;99.90
18906;DHT22;9585;51.018;4.282;2022-12-08T04:23:48;2.60;99.90
18906;DHT22;9585;51.018;4.282;2022-12-08T04:26:16;2.70;99.90
18906;DHT22;9585;51.018;4.282;2022-12-08T04:28:46;2.70;99.90
18906;DHT22;9585;51.018;4.282;2022-12-08T04:31:14;2.70;99.90
18906;DHT22;9585;51.018;4.282;2022-12-08T04:33:41;2.80;99.90
18906;DHT22;9585;51.018;4.282;2022-12-08T04:36:09;2.80;99.90
18906;DHT22;9585;51.018;4.282;2022-12-08T04:38:36;2.80;99.90
18906;DHT22;9585;51.018;4.282;2022-12-08T04:41:04;2.90;99.90
18906;DHT22;9585;51.018;4.282;2022-12-08T04:43:31;2.80;99.90
18906;DHT22;9585;51.018;4.282;2022-12-08T04:46:00;2.80;99.90
18906;DHT22;9585;51.018;4.282;2022-12-08T04:48:28;2.80;99.90
18906;DHT22;9585;51.018;4.282;2022-12-08T04:50:55;2.80;99.90
18906;DHT22;9585;51.018;4.282;2022-12-08T04:53:23;2.80;99.90
18906;DHT22;9585;51.018;4.282;2022-12-08T04:55:51;2.70;99.90
18906;DHT22;9585;51.018;4.282;2022-12-08T04:58:19;2.70;99.90
18906;DHT22;9585;51.018;4.282;2022-12-08T05:00:47;2.70;99.90
18906;DHT22;9585;51.018;4.282;2022-12-08T05:03:16;2.60;99.90
18906;DHT22;9585;51.018;4.282;2022-12-08T05:05:43;2.60;99.90
18906;DHT22;9585;51.018;4.282;2022-12-08T05:08:11;2.60;99.90
18906;DHT22;9585;51.018;4.282;2022-12-08T05:10:38;2.60;99.90
18906;DHT22;9585;51.018;4.282;2022-12-08T05:13:06;2.60;99.90
18906;DHT22;9585;51.018;4.282;2022-12-08T05:15:34;2.60;99.90
18906;DHT22;9585;51.018;4.282;2022-12-08T05:18:04;2.60;99.90
18906;DHT22;9585;51.018;4.282;2022-12-08T05:20:33;2.60;99.90
18906;DHT22;9585;51.018;4.282;2022-12-08T05:23:01;2.50;99.90
18906;DHT22;9585;51.018;4.282;2022-12-08T05:25:29;2.50;99.90
18906;DHT22;9585;51.018;4.282;2022-12-08T05:27:57;2.50;99.90
18906;DHT22;9585;51.018;4.282;2022-12-08T05:30:24;2.50;99.90
18906;DHT22;9585;51.018;4.282;2022-12-08T05:32:54;2.50;99.90
18906;DHT22;9585;51.018;4.282;2022-12-08T05:35:22;2.50;99.90
18906;DHT22;9585;51.018;4.282;2022-12-08T05:37:51;2.50;99.90
18906;DHT22;9585;51.018;4.282;2022-12-08T05:40:18;2.50;99.90
18906;DHT22;9585;51.018;4.282;2022-12-08T05:42:46;2.40;99.90
18906;DHT22;9585;51.018;4.282;2022-12-08T05:45:13;2.30;99.90
18906;DHT22;9585;51.018;4.282;2022-12-08T05:47:40;2.30;99.90
18906;DHT22;9585;51.018;4.282;2022-12-08T05:50:08;2.30;99.90
18906;DHT22;9585;51.018;4.282;2022-12-08T05:52:36;2.30;99.90
18906;DHT22;9585;51.018;4.282;2022-12-08T05:55:05;2.30;99.90
18906;DHT22;9585;51.018;4.282;2022-12-08T05:57:33;2.20;99.90
18906;DHT22;9585;51.018;4.282;2022-12-08T06:00:01;2.20;99.90
18906;DHT22;9585;51.018;4.282;2022-12-08T06:02:28;2.20;99.90
18906;DHT22;9585;51.018;4.282;2022-12-08T06:04:55;2.20;99.90
18906;DHT22;9585;51.018;4.282;2022-12-08T06:07:23;2.20;99.90
18906;DHT22;9585;51.018;4.282;2022-12-08T06:09:50;2.20;99.90
18906;DHT22;9585;51.018;4.282;2022-12-08T06:12:20;2.30;99.90
18906;DHT22;9585;51.018;4.282;2022-12-08T06:14:47;2.30;99.90
18906;DHT22;9585;51.018;4.282;2022-12-08T06:17:15;2.20;99.90
18906;DHT22;9585;51.018;4.282;2022-12-08T06:19:42;2.20;99.90
18906;DHT22;9585;51.018;4.282;2022-12-08T06:22:10;2.20;99.90
18906;DHT22;9585;51.018;4.282;2022-12-08T06:24:37;2.20;99.90
18906;DHT22;9585;51.018;4.282;2022-12-08T06:27:05;2.20;99.90
18906;DHT22;9585;51.018;4.282;2022-12-08T06:29:34;2.20;99.90
18906;DHT22;9585;51.018;4.282;2022-12-08T06:32:01;2.20;99.90
18906;DHT22;9585;51.018;4.282;2022-12-08T06:34:29;2.30;99.90
18906;DHT22;9585;51.018;4.282;2022-12-08T06:36:56;2.30;99.90
18906;DHT22;9585;51.018;4.282;2022-12-08T06:39:24;2.30;99.90
18906;DHT22;9585;51.018;4.282;2022-12-08T06:41:52;2.30;99.90
18906;DHT22;9585;51.018;4.282;2022-12-08T06:44:38;2.30;99.90
18906;DHT22;9585;51.018;4.282;2022-12-08T06:47:06;2.30;99.90
18906;DHT22;9585;51.018;4.282;2022-12-08T06:49:37;2.30;99.90
18906;DHT22;9585;51.018;4.282;2022-12-08T06:52:05;2.30;99.90
18906;DHT22;9585;51.018;4.282;2022-12-08T06:54:32;2.30;99.90
18906;DHT22;9585;51.018;4.282;2022-12-08T06:57:00;2.30;99.90
18906;DHT22;9585;51.018;4.282;2022-12-08T06:59:27;2.30;99.90
18906;DHT22;9585;51.018;4.282;2022-12-08T07:01:57;2.30;99.90
18906;DHT22;9585;51.018;4.282;2022-12-08T07:04:25;2.30;99.90
18906;DHT22;9585;51.018;4.282;2022-12-08T07:06:53;2.30;99.90
18906;DHT22;9585;51.018;4.282;2022-12-08T07:09:20;2.30;99.90
18906;DHT22;9585;51.018;4.282;2022-12-08T07:11:48;2.30;99.90
18906;DHT22;9585;51.018;4.282;2022-12-08T07:14:15;2.30;99.90
18906;DHT22;9585;51.018;4.282;2022-12-08T07:16:45;2.30;99.90
18906;DHT22;9585;51.018;4.282;2022-12-08T07:19:14;2.30;99.90
18906;DHT22;9585;51.018;4.282;2022-12-08T07:21:42;2.30;99.90
18906;DHT22;9585;51.018;4.282;2022-12-08T07:24:10;2.20;99.90
18906;DHT22;9585;51.018;4.282;2022-12-08T07:26:37;2.30;99.90
18906;DHT22;9585;51.018;4.282;2022-12-08T07:29:05;2.20;99.90
18906;DHT22;9585;51.018;4.282;2022-12-08T07:31:33;2.30;99.90
18906;DHT22;9585;51.018;4.282;2022-12-08T07:34:00;2.30;99.90
18906;DHT22;9585;51.018;4.282;2022-12-08T07:36:30;2.30;99.90
18906;DHT22;9585;51.018;4.282;2022-12-08T07:39:01;2.30;99.90
18906;DHT22;9585;51.018;4.282;2022-12-08T07:41:29;2.40;99.90
18906;DHT22;9585;51.018;4.282;2022-12-08T07:43:56;2.40;99.90
18906;DHT22;9585;51.018;4.282;2022-12-08T07:46:24;2.40;99.90
18906;DHT22;9585;51.018;4.282;2022-12-08T07:48:53;2.40;99.90
18906;DHT22;9585;51.018;4.282;2022-12-08T07:51:22;2.40;99.90
18906;DHT22;9585;51.018;4.282;2022-12-08T07:53:52;2.40;99.90
18906;DHT22;9585;51.018;4.282;2022-12-08T07:56:20;2.40;99.90
18906;DHT22;9585;51.018;4.282;2022-12-08T07:58:48;2.40;99.90
18906;DHT22;9585;51.018;4.282;2022-12-08T08:01:21;2.40;99.90
18906;DHT22;9585;51.018;4.282;2022-12-08T08:03:49;2.40;99.90
18906;DHT22;9585;51.018;4.282;2022-12-08T08:06:27;2.50;99.90
18906;DHT22;9585;51.018;4.282;2022-12-08T08:09:02;2.50;99.90
18906;DHT22;9585;51.018;4.282;2022-12-08T08:11:30;2.50;99.90
18906;DHT22;9585;51.018;4.282;2022-12-08T08:13:57;2.50;99.90
18906;DHT22;9585;51.018;4.282;2022-12-08T08:16:25;2.50;99.90
18906;DHT22;9585;51.018;4.282;2022-12-08T08:18:58;2.60;99.90
18906;DHT22;9585;51.018;4.282;2022-12-08T08:21:29;2.60;99.90
18906;DHT22;9585;51.018;4.282;2022-12-08T08:24:19;2.60;99.90
18906;DHT22;9585;51.018;4.282;2022-12-08T08:27:03;2.60;99.90
18906;DHT22;9585;51.018;4.282;2022-12-08T08:29:36;2.60;99.90
18906;DHT22;9585;51.018;4.282;2022-12-08T08:32:04;2.60;99.90
18906;DHT22;9585;51.018;4.282;2022-12-08T08:34:32;2.60;99.90
18906;DHT22;9585;51.018;4.282;2022-12-08T08:37:03;2.60;99.90
18906;DHT22;9585;51.018;4.282;2022-12-08T08:39:54;2.70;99.90
18906;DHT22;9585;51.018;4.282;2022-12-08T08:42:38;2.70;99.90
18906;DHT22;9585;51.018;4.282;2022-12-08T08:45:06;2.70;99.90
18906;DHT22;9585;51.018;4.282;2022-12-08T08:47:45;2.70;99.90
18906;DHT22;9585;51.018;4.282;2022-12-08T08:50:12;2.70;99.90
18906;DHT22;9585;51.018;4.282;2022-12-08T08:52:40;2.70;99.90
18906;DHT22;9585;51.018;4.282;2022-12-08T08:55:09;2.80;99.90
18906;DHT22;9585;51.018;4.282;2022-12-08T08:57:37;2.80;99.90
18906;DHT22;9585;51.018;4.282;2022-12-08T09:00:06;2.80;99.90
18906;DHT22;9585;51.018;4.282;2022-12-08T09:02:35;2.80;99.90
18906;DHT22;9585;51.018;4.282;2022-12-08T09:05:06;3.00;99.90
18906;DHT22;9585;51.018;4.282;2022-12-08T09:07:34;3.00;99.90
18906;DHT22;9585;51.018;4.282;2022-12-08T09:10:24;3.00;99.90
18906;DHT22;9585;51.018;4.282;2022-12-08T09:12:52;3.00;99.90
18906;DHT22;9585;51.018;4.282;2022-12-08T09:15:21;3.00;99.90
18906;DHT22;9585;51.018;4.282;2022-12-08T09:17:53;3.00;99.90
18906;DHT22;9585;51.018;4.282;2022-12-08T09:20:24;3.10;99.90
18906;DHT22;9585;51.018;4.282;2022-12-08T09:22:53;3.00;99.90
18906;DHT22;9585;51.018;4.282;2022-12-08T09:25:26;3.00;99.90
18906;DHT22;9585;51.018;4.282;2022-12-08T09:27:54;3.00;99.90
18906;DHT22;9585;51.018;4.282;2022-12-08T09:30:22;3.10;99.90
18906;DHT22;9585;51.018;4.282;2022-12-08T09:32:49;3.00;99.90
18906;DHT22;9585;51.018;4.282;2022-12-08T09:35:19;3.00;99.90
18906;DHT22;9585;51.018;4.282;2022-12-08T09:37:46;2.90;99.90
18906;DHT22;9585;51.018;4.282;2022-12-08T09:40:16;2.90;99.90
18906;DHT22;9585;51.018;4.282;2022-12-08T09:42:54;2.90;99.90
18906;DHT22;9585;51.018;4.282;2022-12-08T09:45:29;2.80;99.90
18906;DHT22;9585;51.018;4.282;2022-12-08T09:48:04;2.70;99.90
18906;DHT22;9585;51.018;4.282;2022-12-08T09:50:36;2.70;99.90
18906;DHT22;9585;51.018;4.282;2022-12-08T09:53:10;2.70;99.90
18906;DHT22;9585;51.018;4.282;2022-12-08T09:55:42;2.70;99.90
18906;DHT22;9585;51.018;4.282;2022-12-08T09:58:20;2.70;99.90
18906;DHT22;9585;51.018;4.282;2022-12-08T10:00:50;2.60;99.90
18906;DHT22;9585;51.018;4.282;2022-12-08T10:03:25;2.60;99.90
18906;DHT22;9585;51.018;4.282;2022-12-08T10:05:58;2.60;99.90
18906;DHT22;9585;51.018;4.282;2022-12-08T10:08:39;2.60;99.90
18906;DHT22;9585;51.018;4.282;2022-12-08T10:11:13;2.50;99.90
18906;DHT22;9585;51.018;4.282;2022-12-08T10:13:50;2.50;99.90
18906;DHT22;9585;51.018;4.282;2022-12-08T10:16:26;2.60;99.90
18906;DHT22;9585;51.018;4.282;2022-12-08T10:19:00;2.50;99.90
18906;DHT22;9585;51.018;4.282;2022-12-08T10:21:38;2.70;99.90
18906;DHT22;9585;51.018;4.282;2022-12-08T10:24:12;2.80;99.90
18906;DHT22;9585;51.018;4.282;2022-12-08T10:26:43;3.10;99.90
18906;DHT22;9585;51.018;4.282;2022-12-08T10:29:14;3.30;99.90
18906;DHT22;9585;51.018;4.282;2022-12-08T10:31:42;3.40;99.90
18906;DHT22;9585;51.018;4.282;2022-12-08T10:34:15;3.40;99.90
18906;DHT22;9585;51.018;4.282;2022-12-08T10:36:48;3.40;99.90
18906;DHT22;9585;51.018;4.282;2022-12-08T10:39:31;3.50;99.90
18906;DHT22;9585;51.018;4.282;2022-12-08T10:42:07;3.70;99.90
18906;DHT22;9585;51.018;4.282;2022-12-08T10:44:54;3.60;99.90
18906;DHT22;9585;51.018;4.282;2022-12-08T10:47:25;3.60;99.90
18906;DHT22;9585;51.018;4.282;2022-12-08T10:50:09;3.70;99.90
18906;DHT22;9585;51.018;4.282;2022-12-08T10:52:39;3.80;99.90
18906;DHT22;9585;51.018;4.282;2022-12-08T10:55:13;3.90;99.90
18906;DHT22;9585;51.018;4.282;2022-12-08T10:57:41;4.00;99.90
18906;DHT22;9585;51.018;4.282;2022-12-08T11:00:14;4.20;99.90
18906;DHT22;9585;51.018;4.282;2022-12-08T11:02:53;4.50;99.90
18906;DHT22;9585;51.018;4.282;2022-12-08T11:05:25;4.70;99.90
18906;DHT22;9585;51.018;4.282;2022-12-08T11:07:54;4.70;99.90
18906;DHT22;9585;51.018;4.282;2022-12-08T11:10:31;4.60;99.90
18906;DHT22;9585;51.018;4.282;2022-12-08T11:13:00;4.80;99.90
18906;DHT22;9585;51.018;4.282;2022-12-08T11:15:34;4.80;99.90
18906;DHT22;9585;51.018;4.282;2022-12-08T11:18:19;4.80;99.90
18906;DHT22;9585;51.018;4.282;2022-12-08T11:20:56;4.90;99.90
18906;DHT22;9585;51.018;4.282;2022-12-08T11:23:25;5.10;99.90
18906;DHT22;9585;51.018;4.282;2022-12-08T11:25:57;5.10;99.90
18906;DHT22;9585;51.018;4.282;2022-12-08T11:28:27;5.20;99.90
18906;DHT22;9585;51.018;4.282;2022-12-08T11:31:01;5.30;99.90
18906;DHT22;9585;51.018;4.282;2022-12-08T11:33:29;5.20;99.90
18906;DHT22;9585;51.018;4.282;2022-12-08T11:36:01;5.20;99.90
18906;DHT22;9585;51.018;4.282;2022-12-08T11:38:30;5.20;99.90
18906;DHT22;9585;51.018;4.282;2022-12-08T11:41:03;5.20;99.90
18906;DHT22;9585;51.018;4.282;2022-12-08T11:43:45;5.20;99.90
18906;DHT22;9585;51.018;4.282;2022-12-08T11:46:18;5.10;99.90
18906;DHT22;9585;51.018;4.282;2022-12-08T11:48:50;5.00;99.90
18906;DHT22;9585;51.018;4.282;2022-12-08T11:51:25;5.10;99.90
18906;DHT22;9585;51.018;4.282;2022-12-08T11:54:22;5.00;99.90
18906;DHT22;9585;51.018;4.282;2022-12-08T11:56:58;5.00;99.90
18906;DHT22;9585;51.018;4.282;2022-12-08T11:59:29;5.00;99.90
18906;DHT22;9585;51.018;4.282;2022-12-08T12:02:06;5.00;99.90
18906;DHT22;9585;51.018;4.282;2022-12-08T12:04:45;5.10;99.90
18906;DHT22;9585;51.018;4.282;2022-12-08T12:07:32;5.10;99.90
18906;DHT22;9585;51.018;4.282;2022-12-08T12:13:26;5.30;99.90
18906;DHT22;9585;51.018;4.282;2022-12-08T12:19:02;5.60;99.90
18906;DHT22;9585;51.018;4.282;2022-12-08T12:21:33;5.90;99.90
18906;DHT22;9585;51.018;4.282;2022-12-08T12:24:05;5.90;99.90
18906;DHT22;9585;51.018;4.282;2022-12-08T12:26:36;5.90;99.90
18906;DHT22;9585;51.018;4.282;2022-12-08T12:29:06;5.90;99.90
18906;DHT22;9585;51.018;4.282;2022-12-08T12:31:36;6.00;99.90
18906;DHT22;9585;51.018;4.282;2022-12-08T12:34:14;6.10;99.90
18906;DHT22;9585;51.018;4.282;2022-12-08T12:36:46;6.00;99.90
18906;DHT22;9585;51.018;4.282;2022-12-08T12:39:14;5.90;99.90
18906;DHT22;9585;51.018;4.282;2022-12-08T12:41:46;5.90;99.90
18906;DHT22;9585;51.018;4.282;2022-12-08T12:44:36;5.90;99.90
18906;DHT22;9585;51.018;4.282;2022-12-08T12:47:09;6.00;99.90
18906;DHT22;9585;51.018;4.282;2022-12-08T12:52:42;6.30;99.90
18906;DHT22;9585;51.018;4.282;2022-12-08T13:01:48;6.40;99.90
18906;DHT22;9585;51.018;4.282;2022-12-08T13:04:17;6.20;99.90
18906;DHT22;9585;51.018;4.282;2022-12-08T13:06:48;6.00;99.90
18906;DHT22;9585;51.018;4.282;2022-12-08T13:09:22;5.90;99.90
18906;DHT22;9585;51.018;4.282;2022-12-08T13:11:52;5.80;99.90
18906;DHT22;9585;51.018;4.282;2022-12-08T13:14:27;5.70;99.90
18906;DHT22;9585;51.018;4.282;2022-12-08T13:16:57;5.50;99.90
18906;DHT22;9585;51.018;4.282;2022-12-08T13:19:25;5.20;99.90
18906;DHT22;9585;51.018;4.282;2022-12-08T13:21:57;5.10;99.90
18906;DHT22;9585;51.018;4.282;2022-12-08T13:24:33;4.90;99.90
18906;DHT22;9585;51.018;4.282;2022-12-08T13:27:31;4.60;99.90
18906;DHT22;9585;51.018;4.282;2022-12-08T13:33:14;4.20;99.90
18906;DHT22;9585;51.018;4.282;2022-12-08T13:35:48;4.00;99.90
18906;DHT22;9585;51.018;4.282;2022-12-08T13:38:20;4.00;99.90
18906;DHT22;9585;51.018;4.282;2022-12-08T13:40:48;3.90;99.90
18906;DHT22;9585;51.018;4.282;2022-12-08T13:43:21;3.80;99.90
18906;DHT22;9585;51.018;4.282;2022-12-08T13:45:51;3.80;99.90
18906;DHT22;9585;51.018;4.282;2022-12-08T13:48:26;3.70;99.90
18906;DHT22;9585;51.018;4.282;2022-12-08T13:50:58;3.70;99.90
18906;DHT22;9585;51.018;4.282;2022-12-08T13:53:37;3.70;99.90
18906;DHT22;9585;51.018;4.282;2022-12-08T13:56:06;3.60;99.90
18906;DHT22;9585;51.018;4.282;2022-12-08T13:58:37;3.60;99.90
18906;DHT22;9585;51.018;4.282;2022-12-08T14:01:07;3.50;99.90
18906;DHT22;9585;51.018;4.282;2022-12-08T14:03:48;3.60;99.90
18906;DHT22;9585;51.018;4.282;2022-12-08T14:06:19;3.60;99.90
18906;DHT22;9585;51.018;4.282;2022-12-08T14:08:51;3.70;99.90
18906;DHT22;9585;51.018;4.282;2022-12-08T14:11:25;3.70;99.90
18906;DHT22;9585;51.018;4.282;2022-12-08T14:14:04;3.70;99.90
18906;DHT22;9585;51.018;4.282;2022-12-08T14:16:36;3.70;99.90
18906;DHT22;9585;51.018;4.282;2022-12-08T14:19:13;3.70;99.90
18906;DHT22;9585;51.018;4.282;2022-12-08T14:21:44;3.70;99.90
18906;DHT22;9585;51.018;4.282;2022-12-08T14:24:13;3.70;99.90
18906;DHT22;9585;51.018;4.282;2022-12-08T14:26:41;3.60;99.90
18906;DHT22;9585;51.018;4.282;2022-12-08T14:29:35;3.60;99.90
18906;DHT22;9585;51.018;4.282;2022-12-08T14:32:03;3.70;99.90
18906;DHT22;9585;51.018;4.282;2022-12-08T14:34:34;3.60;99.90
18906;DHT22;9585;51.018;4.282;2022-12-08T14:37:10;3.60;99.90
18906;DHT22;9585;51.018;4.282;2022-12-08T14:39:39;3.60;99.90
18906;DHT22;9585;51.018;4.282;2022-12-08T14:42:16;3.70;99.90
18906;DHT22;9585;51.018;4.282;2022-12-08T14:44:46;3.70;99.90
18906;DHT22;9585;51.018;4.282;2022-12-08T14:47:18;3.70;99.90
18906;DHT22;9585;51.018;4.282;2022-12-08T14:49:46;3.70;99.90
18906;DHT22;9585;51.018;4.282;2022-12-08T14:52:14;3.70;99.90
18906;DHT22;9585;51.018;4.282;2022-12-08T14:54:42;3.70;99.90
18906;DHT22;9585;51.018;4.282;2022-12-08T14:57:12;3.60;99.90
18906;DHT22;9585;51.018;4.282;2022-12-08T14:59:41;3.60;99.90
18906;DHT22;9585;51.018;4.282;2022-12-08T15:02:20;3.60;99.90
18906;DHT22;9585;51.018;4.282;2022-12-08T15:04:56;3.50;99.90
18906;DHT22;9585;51.018;4.282;2022-12-08T15:07:26;3.50;99.90
18906;DHT22;9585;51.018;4.282;2022-12-08T15:10:19;3.50;99.90
18906;DHT22;9585;51.018;4.282;2022-12-08T15:13:03;3.50;99.90
18906;DHT22;9585;51.018;4.282;2022-12-08T15:15:33;3.40;99.90
18906;DHT22;9585;51.018;4.282;2022-12-08T15:18:14;3.30;99.90
18906;DHT22;9585;51.018;4.282;2022-12-08T15:20:44;3.30;99.90
18906;DHT22;9585;51.018;4.282;2022-12-08T15:23:21;3.30;99.90
18906;DHT22;9585;51.018;4.282;2022-12-08T15:25:50;3.20;99.90
18906;DHT22;9585;51.018;4.282;2022-12-08T15:28:20;3.20;99.90
18906;DHT22;9585;51.018;4.282;2022-12-08T15:30:48;3.20;99.90
18906;DHT22;9585;51.018;4.282;2022-12-08T15:33:16;3.20;99.90
18906;DHT22;9585;51.018;4.282;2022-12-08T15:35:43;3.20;99.90
18906;DHT22;9585;51.018;4.282;2022-12-08T15:38:18;3.10;99.90
18906;DHT22;9585;51.018;4.282;2022-12-08T15:40:47;3.00;99.90
18906;DHT22;9585;51.018;4.282;2022-12-08T15:43:15;3.00;99.90
18906;DHT22;9585;51.018;4.282;2022-12-08T15:45:43;2.90;99.90
18906;DHT22;9585;51.018;4.282;2022-12-08T15:48:16;2.90;99.90
18906;DHT22;9585;51.018;4.282;2022-12-08T15:50:44;2.90;99.90
18906;DHT22;9585;51.018;4.282;2022-12-08T15:53:12;2.80;99.90
18906;DHT22;9585;51.018;4.282;2022-12-08T15:55:40;2.90;99.90
18906;DHT22;9585;51.018;4.282;2022-12-08T15:58:16;2.80;99.90
18906;DHT22;9585;51.018;4.282;2022-12-08T16:00:45;2.80;99.90
18906;DHT22;9585;51.018;4.282;2022-12-08T16:03:20;2.80;99.90
18906;DHT22;9585;51.018;4.282;2022-12-08T16:05:47;2.80;99.90
18906;DHT22;9585;51.018;4.282;2022-12-08T16:08:15;2.80;99.90
18906;DHT22;9585;51.018;4.282;2022-12-08T16:10:43;2.80;99.90
18906;DHT22;9585;51.018;4.282;2022-12-08T16:13:17;2.70;99.90
18906;DHT22;9585;51.018;4.282;2022-12-08T16:16:04;2.70;99.90
18906;DHT22;9585;51.018;4.282;2022-12-08T16:18:33;2.70;99.90
18906;DHT22;9585;51.018;4.282;2022-12-08T16:21:01;2.70;99.90
18906;DHT22;9585;51.018;4.282;2022-12-08T16:23:29;2.60;99.90
18906;DHT22;9585;51.018;4.282;2022-12-08T16:25:57;2.60;99.90
18906;DHT22;9585;51.018;4.282;2022-12-08T16:28:26;2.60;99.90
18906;DHT22;9585;51.018;4.282;2022-12-08T16:30:54;2.60;99.90
18906;DHT22;9585;51.018;4.282;2022-12-08T16:33:22;2.50;99.90
18906;DHT22;9585;51.018;4.282;2022-12-08T16:35:50;2.50;99.90
18906;DHT22;9585;51.018;4.282;2022-12-08T16:38:18;2.50;99.90
18906;DHT22;9585;51.018;4.282;2022-12-08T16:40:46;2.40;99.90
18906;DHT22;9585;51.018;4.282;2022-12-08T16:43:33;2.40;99.90
18906;DHT22;9585;51.018;4.282;2022-12-08T16:46:01;2.30;99.90
18906;DHT22;9585;51.018;4.282;2022-12-08T16:48:29;2.30;99.90
18906;DHT22;9585;51.018;4.282;2022-12-08T16:50:56;2.20;99.90